ウィーン の空港の天気 - METARとTAF

ウィーン国際空港 ( LOWW / VIE ) - オーストリア ウィーン
飛行場実況気象(Metar)
観測時間05/28 02:50 CEST (05/28 00:50 UTC)
風向・風速西北西 1m/s
視程10km以上
天気現象
なし
気温11℃
湿度71%
気圧1026hPa
METARLOWW 280050Z 30002KT CAVOK 11/06 Q1026 NOSIG
過去の天気等 Google飛行場航空写真 Wunderground天気予報

過去48時間のMETAR

飛行場予報(TAF)
発表時間: 5/28 01:15 CEST (5/27 23:15 UTC)
予報対象時間: 28日2時 CEST ~ 29日8時 CEST
風向・風速北西 6m/s
視程10km以上
なし
28日2時 CEST ~ 28日7時 CEST に一時的に
風向・風速南西 3m/s
28日11時 CEST ~ 28日13時 CEST に徐々に
視程10km以上
天気現象弱い雨
全天の8割程度の雲 雲底高度 1520m
28日13時 CEST ~ 28日21時 CEST に一時的に
風向・風速北北西 8m/s 瞬間風速 13m/s
天気現象しゅう雨
全天の8割程度の雲 雲底高度 910m
少しの塔状積雲 雲底高度 910m
28日22時 CEST ~ 28日24時 CEST に徐々に
天気現象運行に影響にある天気現象が終了
TAF LOWW 272315Z 2800/2906 32012KT CAVOK TX16/2811Z TN09/2903Z
TEMPO 2800/2805 23005KT
BECMG 2809/2811 9999 -RA BKN050
TEMPO 2811/2819 33015G25KT SHRA BKN030 FEW030TCU
BECMG 2820/2822 NSW